createdAt,value
2022-09-12T00:03:03.452Z,101738.16
2022-09-12T00:08:06.539Z,101745.25
2022-09-12T00:13:12.767Z,101733.75
2022-09-12T00:18:18.390Z,101724.88
2022-09-12T00:23:21.405Z,101730.13
2022-09-12T00:28:24.389Z,101727.44
2022-09-12T00:33:29.073Z,101728.22
2022-09-12T00:38:32.515Z,101722.94
2022-09-12T00:43:39.095Z,101721.03
2022-09-12T00:48:51.404Z,101714.59
2022-09-12T00:53:56.603Z,101711.91
2022-09-12T00:59:03.901Z,101707.44
2022-09-12T01:04:09.603Z,101694.94
2022-09-12T01:09:16.693Z,101687.88
2022-09-12T01:14:20.965Z,101692.19
2022-09-12T01:20:05.706Z,101693.84
2022-09-12T01:25:21.394Z,101690.94
2022-09-12T01:30:45.382Z,101674.75
2022-09-12T01:35:56.834Z,101683.50
2022-09-12T01:41:11.704Z,101678.03
2022-09-12T01:46:18.548Z,101675.13
2022-09-12T01:51:26.269Z,101666.97
2022-09-12T01:56:32.863Z,101670.38
2022-09-12T02:01:42.414Z,101661.47
2022-09-12T02:06:50.072Z,101661.31
2022-09-12T02:11:58.510Z,101645.47
2022-09-12T02:17:09.088Z,101655.09
2022-09-12T02:22:17.105Z,101650.72
2022-09-12T02:27:24.762Z,101645.34
2022-09-12T02:32:35.876Z,101633.69
2022-09-12T02:37:58.984Z,101632.69
2022-09-12T02:43:03.080Z,101636.09
2022-09-12T02:48:16.037Z,101639.66
2022-09-12T02:53:19.652Z,101628.13
2022-09-12T02:58:28.378Z,101622.81
2022-09-12T03:03:51.793Z,101625.38
2022-09-12T03:09:04.832Z,101618.25
2022-09-12T03:14:21.510Z,101613.06
2022-09-12T03:19:34.557Z,101605.97
2022-09-12T03:24:44.087Z,101604.22
2022-09-12T03:29:49.013Z,101603.38
2022-09-12T03:34:53.261Z,101598.16
2022-09-12T03:39:56.274Z,101595.53
2022-09-12T03:44:59.257Z,101589.16
2022-09-12T03:50:03.824Z,101595.47
2022-09-12T03:55:07.925Z,101593.75
2022-09-12T04:00:15.309Z,101586.75
2022-09-12T04:05:21.998Z,101586.88
2022-09-12T04:10:25.015Z,101574.53
2022-09-12T04:15:27.890Z,101573.72
2022-09-12T04:20:32.421Z,101578.19
2022-09-12T04:25:35.412Z,101569.41
2022-09-12T04:30:39.559Z,101563.16
2022-09-12T04:35:45.372Z,101553.50
2022-09-12T04:40:48.305Z,101555.19
2022-09-12T04:45:51.987Z,101566.69
2022-09-12T04:50:56.428Z,101571.09
2022-09-12T04:56:03.889Z,101571.03
2022-09-12T05:01:08.302Z,101576.34
2022-09-12T05:06:15.074Z,101565.78
2022-09-12T05:11:24.556Z,101571.97
2022-09-12T05:16:29.876Z,101567.44
2022-09-12T05:21:35.607Z,101570.94
2022-09-12T05:26:40.857Z,101569.06
2022-09-12T05:31:43.848Z,101582.38
2022-09-12T05:36:48.417Z,101571.78
2022-09-12T05:41:51.420Z,101574.34
2022-09-12T05:46:54.349Z,101567.25
2022-09-12T05:51:58.649Z,101567.25
2022-09-12T05:57:01.675Z,101564.50
2022-09-12T06:02:04.861Z,101563.66
2022-09-12T06:07:09.243Z,101573.47
2022-09-12T06:12:12.371Z,101562.84
2022-09-12T06:17:15.377Z,101564.69
2022-09-12T06:22:19.966Z,101568.31
2022-09-12T06:27:22.926Z,101565.66
2022-09-12T06:32:25.943Z,101565.88
2022-09-12T06:37:30.444Z,101562.38
2022-09-12T06:42:33.975Z,101561.69
2022-09-12T06:47:39.629Z,101565.31
2022-09-12T06:52:44.431Z,101566.28
2022-09-12T06:57:47.347Z,101563.81
2022-09-12T07:02:50.287Z,101564.81
2022-09-12T07:07:54.598Z,101568.53
2022-09-12T07:12:57.532Z,101561.69
2022-09-12T07:18:00.405Z,101558.44
2022-09-12T07:23:04.832Z,101561.28
2022-09-12T07:28:07.827Z,101557.13
2022-09-12T07:33:10.898Z,101564.38
2022-09-12T07:38:15.191Z,101564.56
2022-09-12T07:43:18.215Z,101569.94
2022-09-12T07:48:21.475Z,101572.81
2022-09-12T07:53:25.936Z,101573.13
2022-09-12T07:58:28.911Z,101570.81
2022-09-12T08:03:31.853Z,101569.78
2022-09-12T08:08:40.014Z,101578.41
2022-09-12T08:13:44.381Z,101585.16
2022-09-12T08:18:47.629Z,101593.72
2022-09-12T08:23:55.197Z,101581.78
2022-09-12T08:28:58.635Z,101584.00
2022-09-12T08:34:01.666Z,101571.94
2022-09-12T08:39:07.847Z,101574.91
2022-09-12T08:44:46.378Z,101576.06
2022-09-12T08:50:00.552Z,101570.16
2022-09-12T08:55:08.122Z,101569.41
2022-09-12T09:00:15.853Z,101562.47
2022-09-12T09:05:24.608Z,101561.66
2022-09-12T09:10:41.048Z,101567.03
2022-09-12T09:15:58.476Z,101557.16
2022-09-12T09:21:07.838Z,101548.16
2022-09-12T09:26:16.545Z,101544.44
2022-09-12T09:31:22.691Z,101535.28
2022-09-12T09:36:39.390Z,101531.50
2022-09-12T09:41:57.007Z,101536.59
2022-09-12T09:47:01.474Z,101533.94
2022-09-12T09:52:07.216Z,101524.72
2022-09-12T09:57:46.730Z,101526.28
2022-09-12T10:03:02.510Z,101510.63
2022-09-12T10:08:08.150Z,101504.97
2022-09-12T10:13:26.044Z,101494.09
2022-09-12T10:18:40.851Z,101479.25
2022-09-12T10:23:45.044Z,101476.47
2022-09-12T10:28:53.533Z,101471.78
2022-09-12T10:33:58.518Z,101471.13
2022-09-12T10:39:03.660Z,101462.53
2022-09-12T10:44:15.124Z,101449.78
2022-09-12T10:49:24.574Z,101443.19
2022-09-12T10:54:32.447Z,101448.19
2022-09-12T10:59:58.331Z,101438.53
2022-09-12T11:05:11.574Z,101435.75
2022-09-12T11:10:24.638Z,101443.88
2022-09-12T11:15:41.691Z,101450.00
2022-09-12T11:20:57.161Z,101443.66
2022-09-12T11:26:09.083Z,101434.41
2022-09-12T11:31:45.385Z,101445.13
2022-09-12T11:37:07.415Z,101438.13
2022-09-12T11:42:19.783Z,101441.44
2022-09-12T11:47:26.470Z,101435.63
2022-09-12T11:52:41.253Z,101424.53
2022-09-12T11:57:50.061Z,101415.13
2022-09-12T12:03:04.673Z,101415.03
2022-09-12T12:08:09.595Z,101415.81
2022-09-12T12:13:20.888Z,101417.63
2022-09-12T12:18:27.271Z,101409.91
2022-09-12T12:23:33.449Z,101398.63
2022-09-12T12:29:01.215Z,101396.81
2022-09-12T12:34:28.824Z,101386.81
2022-09-12T12:40:01.099Z,101376.75
2022-09-12T12:45:25.571Z,101379.13
2022-09-12T12:50:32.031Z,101371.59
2022-09-12T12:55:39.213Z,101362.94
2022-09-12T13:00:42.329Z,101356.72
2022-09-12T13:05:49.955Z,101340.31
2022-09-12T13:10:57.078Z,101349.19
2022-09-12T13:16:00.357Z,101338.81
2022-09-12T13:21:11.319Z,101341.06
2022-09-12T13:26:23.293Z,101327.41
2022-09-12T13:31:30.220Z,101323.16
2022-09-12T13:37:05.937Z,101324.59
2022-09-12T13:42:39.100Z,101329.09
2022-09-12T13:47:44.593Z,101320.06
2022-09-12T13:52:53.354Z,101310.16
2022-09-12T13:58:02.061Z,101302.25
2022-09-12T14:03:43.568Z,101305.94
2022-09-12T14:08:48.838Z,101291.84
2022-09-12T14:13:52.894Z,101280.47
2022-09-12T14:18:56.586Z,101266.91
2022-09-12T14:24:01.875Z,101262.63
2022-09-12T14:29:13.220Z,101253.72
2022-09-12T14:34:20.514Z,101261.53
2022-09-12T14:39:31.000Z,101258.00
2022-09-12T14:44:35.167Z,101254.16
2022-09-12T14:49:39.197Z,101252.78
2022-09-12T14:54:44.543Z,101238.63
2022-09-12T14:59:47.825Z,101240.16
2022-09-12T15:04:52.799Z,101251.94
2022-09-12T15:09:57.448Z,101244.94
2022-09-12T15:15:07.964Z,101238.63
2022-09-12T15:20:11.859Z,101229.69
2022-09-12T15:25:16.395Z,101231.38
2022-09-12T15:30:19.448Z,101222.25
2022-09-12T15:35:25.153Z,101222.63
2022-09-12T15:40:29.588Z,101219.13
2022-09-12T15:45:34.809Z,101221.25
2022-09-12T15:50:37.878Z,101208.63
2022-09-12T15:55:42.600Z,101211.81
2022-09-12T16:00:45.774Z,101202.72
2022-09-12T16:05:49.006Z,101187.53
2022-09-12T16:10:57.056Z,101187.22
2022-09-12T16:16:01.434Z,101196.72
2022-09-12T16:21:04.396Z,101193.84
2022-09-12T16:26:08.840Z,101179.47
2022-09-12T16:31:14.076Z,101181.41
2022-09-12T16:36:19.176Z,101171.19
2022-09-12T16:41:26.413Z,101165.25
2022-09-12T16:46:29.783Z,101142.25
2022-09-12T16:51:36.037Z,101127.53
2022-09-12T16:56:40.412Z,101137.88
2022-09-12T17:01:45.319Z,101110.50
2022-09-12T17:06:48.347Z,101121.69
2022-09-12T17:11:53.269Z,101128.69
2022-09-12T17:16:56.960Z,101121.91
2022-09-12T17:22:00.187Z,101124.19
2022-09-12T17:27:04.997Z,101119.00
2022-09-12T17:32:08.026Z,101119.31
2022-09-12T17:37:11.072Z,101112.63
2022-09-12T17:42:15.558Z,101111.00
2022-09-12T17:47:18.496Z,101121.38
2022-09-12T17:52:21.797Z,101109.38
2022-09-12T17:57:26.262Z,101113.41
2022-09-12T18:02:32.952Z,101121.88
2022-09-12T18:07:38.955Z,101134.84
2022-09-12T18:12:47.182Z,101137.91
2022-09-12T18:17:50.197Z,101131.00
2022-09-12T18:22:53.216Z,101136.63
2022-09-12T18:27:57.714Z,101145.97
2022-09-12T18:33:00.816Z,101149.00
2022-09-12T18:38:03.746Z,101144.72
2022-09-12T18:43:08.308Z,101127.94
2022-09-12T18:48:11.266Z,101118.31
2022-09-12T18:53:14.955Z,101125.69
2022-09-12T18:58:19.610Z,101106.16
2022-09-12T19:03:22.603Z,101102.72
2022-09-12T19:08:25.524Z,101088.66
2022-09-12T19:13:30.301Z,101088.81
2022-09-12T19:18:34.078Z,101099.63
2022-09-12T19:23:37.598Z,101094.41
2022-09-12T19:28:42.400Z,101104.31
2022-09-12T19:33:45.726Z,101101.66
2022-09-12T19:38:48.797Z,101099.00
2022-09-12T19:43:53.121Z,101108.84
2022-09-12T19:48:56.331Z,101118.66
2022-09-12T19:53:59.578Z,101110.69
2022-09-12T19:59:04.618Z,101109.78
2022-09-12T20:04:07.998Z,101100.91
2022-09-12T20:09:11.062Z,101078.69
2022-09-12T20:14:15.631Z,101088.53
2022-09-12T20:19:18.789Z,101080.63
2022-09-12T20:24:21.793Z,101079.78
2022-09-12T20:29:26.183Z,101080.72
2022-09-12T20:34:29.174Z,101069.19
2022-09-12T20:39:32.751Z,101080.75
2022-09-12T20:44:37.061Z,101089.72
2022-09-12T20:49:43.553Z,101091.50
2022-09-12T20:54:46.533Z,101093.31
2022-09-12T20:59:51.197Z,101100.47
2022-09-12T21:04:54.231Z,101100.47
2022-09-12T21:09:57.300Z,101094.25
2022-09-12T21:15:03.869Z,101080.00
2022-09-12T21:20:11.245Z,101086.25
2022-09-12T21:25:14.772Z,101085.38
2022-09-12T21:30:19.517Z,101082.72
2022-09-12T21:35:22.569Z,101084.47
2022-09-12T21:40:25.638Z,101088.94
2022-09-12T21:45:30.429Z,101090.72
2022-09-12T21:50:33.464Z,101096.91
2022-09-12T21:55:36.463Z,101107.59
2022-09-12T22:00:41.545Z,101111.16
2022-09-12T22:05:44.656Z,101107.59
2022-09-12T22:10:47.579Z,101093.38
2022-09-12T22:15:55.045Z,101092.50
2022-09-12T22:21:02.760Z,101091.59
2022-09-12T22:26:05.755Z,101080.03
2022-09-12T22:31:12.649Z,101069.41
2022-09-12T22:36:15.901Z,101064.06
2022-09-12T22:41:18.877Z,101059.59
2022-09-12T22:46:23.909Z,101056.06
2022-09-12T22:51:27.391Z,101055.16
2022-09-12T22:56:30.317Z,101050.72
2022-09-12T23:01:35.428Z,101046.25
2022-09-12T23:06:40.042Z,101046.25
2022-09-12T23:11:42.970Z,101035.59
2022-09-12T23:16:47.300Z,101039.13
2022-09-12T23:21:50.236Z,101022.25
2022-09-12T23:26:53.179Z,101016.03
2022-09-12T23:31:57.412Z,101010.69
2022-09-12T23:37:00.485Z,101008.94
2022-09-12T23:42:03.532Z,101016.94
2022-09-12T23:47:07.937Z,101022.25
2022-09-12T23:52:10.885Z,101006.28
2022-09-12T23:57:13.879Z,101008.94
